Time;durP1;ratioP1;P1;durP2;ratioP2;P2;SDS_P1;SDS_P2;PMS_P1;PMS_P2;Temp;Humidity;BMP_temperature;BMP_pressure;BME280_temperature;BME280_humidity;BME280_pressure;Samples;Min_cycle;Max_cycle;Signal;HPM_P1;HPM_P2
2023/10/28 00:01:13;;;;;;;12.35;6.93;;;11.90;83.00;;;;;;5078267;28;20016;-70
2023/10/28 00:03:40;;;;;;;11.23;7.75;;;11.90;83.00;;;;;;5076638;28;20110;-70
2023/10/28 00:06:07;;;;;;;11.90;7.45;;;11.90;83.00;;;;;;5077569;28;20032;-70
2023/10/28 00:08:33;;;;;;;12.32;6.63;;;11.90;83.00;;;;;;5075333;28;20071;-70
2023/10/28 00:11:00;;;;;;;13.48;7.25;;;11.90;83.00;;;;;;5078948;28;20058;-70
2023/10/28 00:13:26;;;;;;;12.38;6.82;;;11.90;83.00;;;;;;5080003;28;20078;-70
2023/10/28 00:15:52;;;;;;;10.05;6.20;;;11.90;83.00;;;;;;5091317;28;20104;-70
2023/10/28 00:18:18;;;;;;;13.32;6.57;;;11.90;83.00;;;;;;5084567;28;20043;-70
2023/10/28 00:20:45;;;;;;;10.85;6.32;;;11.90;83.10;;;;;;5083364;28;20031;-70
2023/10/28 00:23:13;;;;;;;11.88;6.50;;;11.90;83.10;;;;;;5091489;28;20082;-70
2023/10/28 00:25:39;;;;;;;9.85;6.10;;;11.90;83.10;;;;;;5085636;28;20449;-70
2023/10/28 00:28:05;;;;;;;9.13;5.68;;;11.90;83.10;;;;;;5076813;28;20464;-70
2023/10/28 00:30:31;;;;;;;12.38;5.97;;;11.90;83.20;;;;;;5087962;28;20028;-70
2023/10/28 00:33:00;;;;;;;12.20;6.07;;;11.90;83.20;;;;;;5076613;28;20032;-70
2023/10/28 00:35:28;;;;;;;9.18;5.32;;;11.90;83.20;;;;;;5087086;28;20032;-70
2023/10/28 00:37:54;;;;;;;9.75;5.80;;;11.90;83.20;;;;;;5089659;28;20028;-70
2023/10/28 00:40:20;;;;;;;11.93;5.70;;;11.90;83.20;;;;;;5092341;28;20032;-70
2023/10/28 00:42:45;;;;;;;11.15;5.80;;;11.90;83.20;;;;;;5076401;28;20027;-70
2023/10/28 00:45:13;;;;;;;9.68;5.22;;;11.90;83.30;;;;;;5085636;28;20348;-70
2023/10/28 00:47:41;;;;;;;9.88;6.00;;;11.90;83.30;;;;;;5088152;28;20112;-70
2023/10/28 00:50:12;;;;;;;11.18;5.40;;;12.00;83.40;;;;;;5085747;28;20031;-70
2023/10/28 00:52:50;;;;;;;12.13;4.72;;;12.00;83.50;;;;;;5082325;28;20082;-70
2023/10/28 00:55:18;;;;;;;10.13;4.10;;;12.00;83.50;;;;;;5088496;28;20085;-70
2023/10/28 00:57:44;;;;;;;7.78;4.15;;;12.00;83.50;;;;;;5086724;28;20043;-70
2023/10/28 01:00:11;;;;;;;10.20;4.47;;;12.10;83.70;;;;;;5083319;28;20032;-70
2023/10/28 01:02:42;;;;;;;12.73;4.28;;;12.10;83.60;;;;;;5082785;28;20368;-70
2023/10/28 01:05:11;;;;;;;10.32;4.35;;;12.10;83.70;;;;;;5088600;28;20039;-70
2023/10/28 01:07:39;;;;;;;10.40;3.75;;;12.20;83.70;;;;;;5087917;28;20042;-70
2023/10/28 01:10:08;;;;;;;16.73;4.45;;;12.20;83.80;;;;;;5082124;28;20156;-70
2023/10/28 01:12:35;;;;;;;8.95;3.72;;;12.30;83.90;;;;;;5086770;28;20358;-70
2023/10/28 01:15:01;;;;;;;8.90;3.53;;;12.30;83.90;;;;;;5092895;28;20036;-70
2023/10/28 01:17:29;;;;;;;8.48;3.53;;;12.30;84.00;;;;;;5085550;28;20043;-70
2023/10/28 01:19:56;;;;;;;12.85;4.57;;;12.30;84.10;;;;;;5082624;28;20077;-70
2023/10/28 01:22:26;;;;;;;9.40;4.20;;;12.40;84.20;;;;;;5084813;28;20103;-70
2023/10/28 01:24:52;;;;;;;9.43;3.75;;;12.40;84.20;;;;;;5088861;28;20024;-70
2023/10/28 01:27:19;;;;;;;11.75;3.78;;;12.40;84.30;;;;;;5089943;28;20021;-70
2023/10/28 01:29:48;;;;;;;14.20;3.92;;;12.40;84.30;;;;;;5090770;28;20028;-70
2023/10/28 01:32:14;;;;;;;9.77;3.47;;;12.40;84.30;;;;;;5076124;28;20027;-71
2023/10/28 01:34:52;;;;;;;10.55;4.00;;;12.50;84.50;;;;;;5083307;28;20410;-70
2023/10/28 01:37:18;;;;;;;12.70;3.85;;;12.50;84.40;;;;;;5084995;28;20032;-70
2023/10/28 01:39:50;;;;;;;11.77;3.65;;;12.50;84.50;;;;;;5090472;28;20361;-70
2023/10/28 01:42:20;;;;;;;8.88;3.45;;;12.50;84.50;;;;;;5077103;28;20020;-70
2023/10/28 01:44:47;;;;;;;10.07;3.70;;;12.50;84.50;;;;;;5084157;28;20024;-70
2023/10/28 01:47:14;;;;;;;7.60;3.20;;;12.50;84.50;;;;;;5102503;28;20015;-70
2023/10/28 01:49:42;;;;;;;9.07;3.63;;;12.60;84.60;;;;;;5099742;28;20115;-70
2023/10/28 01:52:09;;;;;;;11.70;3.92;;;12.60;84.60;;;;;;5094522;28;20040;-70
2023/10/28 01:54:35;;;;;;;10.70;4.22;;;12.50;84.60;;;;;;5102174;28;20035;-70
2023/10/28 01:57:09;;;;;;;9.35;3.45;;;12.60;84.80;;;;;;5112425;28;20467;-70
2023/10/28 01:59:38;;;;;;;9.73;3.95;;;12.60;84.80;;;;;;5101666;28;20416;-70
2023/10/28 02:02:04;;;;;;;10.05;3.67;;;12.60;84.80;;;;;;5099918;28;20026;-70
2023/10/28 02:04:31;;;;;;;8.98;3.38;;;12.60;84.90;;;;;;5109171;28;20440;-70
2023/10/28 02:07:00;;;;;;;8.82;3.33;;;12.60;84.90;;;;;;5076883;28;20032;-70
2023/10/28 02:09:27;;;;;;;7.35;2.97;;;12.60;85.00;;;;;;5110116;28;20032;-70
2023/10/28 02:11:54;;;;;;;8.13;3.55;;;12.60;85.00;;;;;;5100134;28;20108;-70
2023/10/28 02:14:20;;;;;;;10.52;3.30;;;12.60;85.00;;;;;;5117627;28;20467;-70
2023/10/28 02:16:46;;;;;;;9.45;3.30;;;12.60;85.00;;;;;;5066603;28;20555;-70
2023/10/28 02:19:12;;;;;;;9.05;3.13;;;12.60;85.10;;;;;;5110416;28;20035;-70
2023/10/28 02:21:38;;;;;;;8.70;3.42;;;12.60;85.10;;;;;;5098715;28;20032;-70
2023/10/28 02:24:04;;;;;;;12.00;3.40;;;12.60;85.10;;;;;;5096888;28;20024;-70
2023/10/28 02:26:30;;;;;;;8.63;3.53;;;12.60;85.10;;;;;;5100678;28;20364;-70
2023/10/28 02:28:56;;;;;;;8.95;3.70;;;12.60;85.10;;;;;;5104672;28;20020;-70
2023/10/28 02:31:22;;;;;;;9.10;3.35;;;12.60;85.10;;;;;;5106081;28;20043;-70
2023/10/28 02:33:48;;;;;;;8.15;3.25;;;12.60;85.20;;;;;;5110675;28;20102;-70
2023/10/28 02:36:13;;;;;;;8.38;3.13;;;12.60;85.20;;;;;;5086490;28;20031;-70
2023/10/28 02:38:42;;;;;;;9.85;3.42;;;12.60;85.20;;;;;;5108333;28;20028;-70
2023/10/28 02:41:08;;;;;;;7.40;3.50;;;12.60;85.20;;;;;;5095486;28;20035;-70
2023/10/28 02:43:39;;;;;;;8.27;3.13;;;12.60;85.20;;;;;;5097051;28;20032;-70
2023/10/28 02:46:05;;;;;;;12.55;3.35;;;12.60;85.20;;;;;;5097963;28;20113;-70
2023/10/28 02:48:31;;;;;;;9.20;3.20;;;12.70;85.20;;;;;;5104199;28;20034;-70
2023/10/28 02:51:06;;;;;;;6.05;2.63;;;12.60;85.20;;;;;;5084976;28;20033;-70
2023/10/28 02:53:33;;;;;;;9.45;3.22;;;12.60;85.20;;;;;;5103345;28;20474;-70
2023/10/28 02:56:04;;;;;;;8.93;2.88;;;12.60;85.20;;;;;;5108641;28;20085;-70
2023/10/28 02:58:30;;;;;;;8.35;2.75;;;12.60;85.30;;;;;;5100221;28;20429;-70
2023/10/28 03:00:57;;;;;;;10.88;3.25;;;12.60;85.30;;;;;;5101902;28;20020;-70
2023/10/28 03:03:23;;;;;;;10.32;3.15;;;12.60;85.30;;;;;;5083382;28;20036;-70
2023/10/28 03:05:51;;;;;;;8.88;3.00;;;12.60;85.30;;;;;;5112453;28;20333;-70
2023/10/28 03:08:19;;;;;;;11.35;2.90;;;12.60;85.30;;;;;;5096275;28;20060;-70
2023/10/28 03:10:44;;;;;;;8.32;2.63;;;12.60;85.30;;;;;;5084873;28;20082;-70
2023/10/28 03:13:10;;;;;;;12.15;3.17;;;12.60;85.30;;;;;;5109322;28;20028;-70
2023/10/28 03:15:36;;;;;;;7.22;2.50;;;12.60;85.30;;;;;;5116265;27;20080;-70
2023/10/28 03:18:03;;;;;;;9.13;2.97;;;12.60;85.30;;;;;;5094830;28;20076;-70
2023/10/28 03:20:29;;;;;;;6.35;2.80;;;12.60;85.30;;;;;;5096362;28;20607;-70
2023/10/28 03:22:55;;;;;;;6.63;2.50;;;12.60;85.30;;;;;;5104117;28;20394;-70
2023/10/28 03:25:21;;;;;;;6.60;2.50;;;12.60;85.30;;;;;;5115843;28;20023;-70
2023/10/28 03:27:47;;;;;;;7.53;2.88;;;12.60;85.30;;;;;;5098600;28;20043;-70
2023/10/28 03:30:13;;;;;;;6.57;2.28;;;12.60;85.40;;;;;;5106322;28;20036;-70
2023/10/28 03:32:39;;;;;;;9.82;3.05;;;12.60;85.40;;;;;;5101898;28;20023;-70
2023/10/28 03:35:05;;;;;;;6.72;2.42;;;12.60;85.40;;;;;;5110731;28;20513;-70
2023/10/28 03:37:34;;;;;;;7.97;2.47;;;12.60;85.30;;;;;;5103549;28;20027;-70
2023/10/28 03:39:59;;;;;;;6.63;2.33;;;12.60;86.00;;;;;;5112545;27;20057;-70
2023/10/28 03:42:27;;;;;;;6.30;2.00;;;12.60;85.40;;;;;;5082291;28;20025;-70
2023/10/28 03:44:53;;;;;;;7.97;2.30;;;12.60;85.40;;;;;;5093789;28;20030;-70
2023/10/28 03:47:18;;;;;;;7.32;2.17;;;12.60;85.40;;;;;;5092824;28;20436;-70
2023/10/28 03:49:44;;;;;;;4.95;1.95;;;12.60;85.30;;;;;;5104638;28;20024;-70
2023/10/28 03:52:10;;;;;;;6.53;2.28;;;12.60;85.30;;;;;;5097579;28;20043;-70
2023/10/28 03:54:35;;;;;;;5.25;2.03;;;12.60;85.30;;;;;;5115068;28;20019;-70
2023/10/28 03:57:01;;;;;;;6.45;2.10;;;12.50;85.20;;;;;;5114064;28;20028;-70
2023/10/28 03:59:27;;;;;;;7.68;1.85;;;12.60;85.30;;;;;;5103398;28;20039;-70
2023/10/28 04:01:53;;;;;;;7.00;2.20;;;12.60;85.30;;;;;;5107367;28;20119;-70
2023/10/28 04:04:19;;;;;;;5.93;1.85;;;12.60;85.30;;;;;;5105770;28;20059;-70
2023/10/28 04:06:45;;;;;;;6.25;1.88;;;12.60;85.20;;;;;;5102265;28;20028;-70
2023/10/28 04:09:14;;;;;;;7.65;1.90;;;12.60;85.20;;;;;;5104100;28;20100;-70
2023/10/28 04:11:40;;;;;;;4.18;1.52;;;12.50;85.20;;;;;;5109357;28;20035;-70
2023/10/28 04:14:06;;;;;;;8.05;1.90;;;12.60;85.20;;;;;;5103087;28;20059;-70
2023/10/28 04:16:32;;;;;;;4.60;1.60;;;12.60;85.10;;;;;;5113503;28;20483;-70
2023/10/28 04:18:58;;;;;;;6.07;1.92;;;12.60;85.10;;;;;;5095756;28;20035;-70
2023/10/28 04:21:24;;;;;;;8.18;2.20;;;12.60;85.10;;;;;;5091875;28;20056;-70
2023/10/28 04:23:50;;;;;;;5.63;1.95;;;12.60;85.10;;;;;;5080907;28;20024;-70
2023/10/28 04:26:15;;;;;;;5.40;1.90;;;12.60;85.10;;;;;;5094167;28;20020;-70
2023/10/28 04:28:41;;;;;;;5.32;1.95;;;12.60;85.10;;;;;;5092461;28;20099;-70
2023/10/28 04:31:07;;;;;;;5.05;1.90;;;12.60;85.10;;;;;;5093000;28;20028;-70
2023/10/28 04:33:33;;;;;;;4.35;1.80;;;12.60;85.10;;;;;;5092513;28;20101;-70
2023/10/28 04:35:58;;;;;;;6.07;2.00;;;12.60;85.10;;;;;;5093225;28;20024;-70
2023/10/28 04:38:24;;;;;;;5.80;2.10;;;12.60;85.10;;;;;;5075487;28;20038;-70
2023/10/28 04:40:50;;;;;;;5.93;2.30;;;12.60;85.10;;;;;;5093246;28;20107;-70
2023/10/28 04:43:16;;;;;;;6.50;2.20;;;12.60;85.10;;;;;;5088565;28;20391;-70
2023/10/28 04:45:45;;;;;;;5.75;2.42;;;12.60;85.10;;;;;;5089612;28;20032;-70
2023/10/28 04:48:13;;;;;;;4.85;1.95;;;12.60;85.10;;;;;;5090363;28;20028;-70
2023/10/28 04:50:41;;;;;;;4.20;1.95;;;12.60;85.10;;;;;;5092420;28;20103;-70
2023/10/28 04:53:07;;;;;;;7.93;2.25;;;12.60;85.00;;;;;;5087914;28;20032;-70
2023/10/28 04:55:33;;;;;;;6.00;2.08;;;12.60;85.10;;;;;;5070515;28;20502;-70
2023/10/28 04:57:59;;;;;;;7.22;2.03;;;12.60;85.00;;;;;;5085532;28;20020;-70
2023/10/28 05:00:25;;;;;;;6.97;2.45;;;12.60;85.00;;;;;;5091372;28;20326;-70
2023/10/28 05:02:51;;;;;;;5.72;2.30;;;12.60;84.90;;;;;;5088860;28;20047;-70
2023/10/28 05:05:17;;;;;;;6.03;2.13;;;12.70;85.00;;;;;;5088808;28;20024;-70
2023/10/28 05:07:43;;;;;;;4.78;2.20;;;12.70;85.00;;;;;;5089636;28;20027;-70
2023/10/28 05:10:09;;;;;;;7.32;2.50;;;12.60;84.90;;;;;;5086877;28;20369;-70
2023/10/28 05:12:38;;;;;;;5.30;2.22;;;12.70;85.00;;;;;;5101953;28;20407;-70
2023/10/28 05:15:06;;;;;;;6.05;2.25;;;12.60;84.90;;;;;;5090992;28;20515;-70
2023/10/28 05:17:32;;;;;;;7.40;2.10;;;12.60;85.00;;;;;;5105171;28;20102;-70
2023/10/28 05:19:58;;;;;;;8.43;2.80;;;12.60;85.00;;;;;;5104163;28;20452;-70
2023/10/28 05:22:24;;;;;;;5.07;1.98;;;12.60;85.00;;;;;;5106206;28;20023;-69
2023/10/28 05:24:52;;;;;;;5.43;1.90;;;12.60;85.00;;;;;;5099163;28;20032;-70
2023/10/28 05:27:18;;;;;;;5.28;2.20;;;12.60;85.00;;;;;;5096804;28;20024;-71
2023/10/28 05:29:44;;;;;;;5.57;2.20;;;12.60;84.90;;;;;;5093099;28;20031;-70
2023/10/28 05:32:10;;;;;;;4.22;2.00;;;12.60;84.90;;;;;;5081547;28;20337;-70
2023/10/28 05:34:36;;;;;;;4.80;2.05;;;12.60;84.80;;;;;;5091078;28;20031;-70
2023/10/28 05:37:02;;;;;;;6.82;2.20;;;12.60;84.90;;;;;;5093521;28;20050;-70
2023/10/28 05:39:28;;;;;;;5.22;2.00;;;12.60;84.90;;;;;;5091922;28;20030;-70
2023/10/28 05:41:54;;;;;;;5.25;2.30;;;12.60;84.90;;;;;;5091874;28;20359;-72
2023/10/28 05:44:20;;;;;;;5.90;2.60;;;12.60;84.90;;;;;;5073407;28;20143;-69
2023/10/28 05:46:45;;;;;;;5.47;2.65;;;12.60;84.80;;;;;;5091987;28;20330;-69
2023/10/28 05:49:12;;;;;;;5.35;2.22;;;12.60;84.80;;;;;;5104942;28;20081;-69
2023/10/28 05:51:39;;;;;;;6.78;2.55;;;12.60;84.80;;;;;;5102744;28;20034;-71
2023/10/28 05:54:04;;;;;;;7.82;2.88;;;12.60;84.80;;;;;;5106926;28;20039;-69
2023/10/28 05:56:30;;;;;;;5.75;2.40;;;12.60;84.80;;;;;;5112019;28;20023;-69
2023/10/28 05:58:58;;;;;;;8.40;2.53;;;12.60;84.80;;;;;;5115361;28;20019;-69
2023/10/28 06:01:27;;;;;;;9.85;2.25;;;12.60;84.80;;;;;;5111236;28;20039;-69
2023/10/28 06:03:53;;;;;;;7.30;2.80;;;12.60;84.80;;;;;;5089008;28;20114;-68
2023/10/28 06:06:18;;;;;;;7.68;2.50;;;12.60;84.80;;;;;;5100906;28;20195;-68
2023/10/28 06:08:44;;;;;;;6.53;2.60;;;12.60;84.80;;;;;;5090252;28;20685;-68
2023/10/28 06:11:10;;;;;;;5.35;2.20;;;12.60;84.90;;;;;;5087786;28;20039;-69
2023/10/28 06:13:36;;;;;;;5.60;2.20;;;12.60;84.90;;;;;;5088733;28;20032;-69
2023/10/28 06:16:02;;;;;;;5.60;2.55;;;12.60;84.90;;;;;;5086867;28;20125;-69
2023/10/28 06:18:29;;;;;;;8.52;2.85;;;12.60;85.00;;;;;;5087477;28;20032;-69
2023/10/28 06:20:55;;;;;;;6.38;2.30;;;12.60;85.00;;;;;;5095040;28;20021;-69
2023/10/28 06:23:21;;;;;;;10.63;3.00;;;12.60;85.00;;;;;;5086629;28;20020;-69
2023/10/28 06:25:47;;;;;;;8.27;3.03;;;12.60;85.00;;;;;;5087726;28;20034;-69
2023/10/28 06:28:13;;;;;;;9.10;2.80;;;12.60;85.00;;;;;;5093804;28;20073;-71
2023/10/28 06:30:49;;;;;;;6.28;2.75;;;12.60;85.00;;;;;;5081120;28;20091;-70
2023/10/28 06:33:15;;;;;;;6.88;2.70;;;12.60;85.00;;;;;;5089677;28;20353;-69
2023/10/28 06:35:41;;;;;;;7.65;2.92;;;12.60;84.90;;;;;;5084755;28;20032;-69
2023/10/28 06:38:07;;;;;;;8.48;2.92;;;12.70;84.90;;;;;;5089954;28;20028;-69
2023/10/28 06:40:35;;;;;;;8.50;2.45;;;12.70;84.80;;;;;;5087146;28;20028;-69
2023/10/28 06:43:01;;;;;;;6.45;2.40;;;12.70;84.70;;;;;;5087570;28;20530;-69
2023/10/28 06:45:28;;;;;;;5.90;2.33;;;12.70;84.70;;;;;;5089941;28;20035;-69
2023/10/28 06:47:54;;;;;;;6.47;2.28;;;12.70;84.60;;;;;;5093347;28;20447;-70
2023/10/28 06:50:19;;;;;;;6.25;2.92;;;12.80;84.60;;;;;;5066057;28;20111;-71
2023/10/28 06:52:48;;;;;;;6.03;2.60;;;12.80;84.50;;;;;;5100214;28;20056;-70
2023/10/28 06:55:14;;;;;;;11.50;2.90;;;12.80;84.50;;;;;;5115352;28;20038;-70
2023/10/28 06:57:41;;;;;;;6.38;2.85;;;12.80;84.50;;;;;;5088714;28;20027;-70
2023/10/28 07:00:13;;;;;;;6.97;2.60;;;12.80;84.50;;;;;;5092073;28;20085;-70
2023/10/28 07:02:39;;;;;;;;;;;12.70;84.40;;;;;;5109070;28;20070;-70
2023/10/28 07:05:05;;;;;;;7.07;2.40;;;12.70;84.50;;;;;;5116726;28;20348;-70
2023/10/28 07:07:31;;;;;;;6.95;2.60;;;12.70;84.50;;;;;;5113455;28;20024;-70
2023/10/28 07:09:57;;;;;;;7.40;2.40;;;12.70;84.60;;;;;;5085341;28;20032;-70
2023/10/28 07:12:22;;;;;;;7.57;3.05;;;12.70;84.50;;;;;;5117541;28;20028;-70
2023/10/28 07:14:48;;;;;;;7.50;2.72;;;12.70;84.60;;;;;;5117617;28;20043;-70
2023/10/28 07:17:14;;;;;;;7.13;2.70;;;12.70;84.60;;;;;;5109238;28;20035;-70
2023/10/28 07:19:40;;;;;;;9.68;3.45;;;12.80;84.60;;;;;;5075174;28;20028;-70
2023/10/28 07:22:05;;;;;;;6.03;2.75;;;12.80;84.60;;;;;;5104152;28;20077;-70
2023/10/28 07:24:34;;;;;;;8.15;3.28;;;12.80;84.60;;;;;;5103150;28;20055;-70
2023/10/28 07:27:01;;;;;;;5.13;2.50;;;12.80;84.60;;;;;;5113390;28;20042;-70
2023/10/28 07:29:27;;;;;;;7.05;2.45;;;12.80;84.60;;;;;;5116491;28;20042;-70
2023/10/28 07:31:53;;;;;;;6.28;2.30;;;12.80;84.60;;;;;;5116820;28;20035;-70
2023/10/28 07:34:19;;;;;;;6.60;2.58;;;12.80;84.50;;;;;;5117099;27;20380;-70
2023/10/28 07:36:45;;;;;;;6.35;2.60;;;12.80;84.50;;;;;;5107230;28;20023;-71
2023/10/28 07:39:11;;;;;;;6.25;2.50;;;12.90;84.60;;;;;;5114528;28;20341;-71
2023/10/28 07:41:37;;;;;;;5.32;2.00;;;12.80;84.40;;;;;;5107187;28;20050;-71
2023/10/28 07:44:03;;;;;;;6.32;2.42;;;12.90;84.40;;;;;;5112400;28;20117;-70
2023/10/28 07:46:30;;;;;;;5.22;2.33;;;12.90;84.50;;;;;;5102281;28;20102;-71
2023/10/28 07:48:56;;;;;;;5.18;2.28;;;12.90;84.40;;;;;;5110406;28;20440;-70
2023/10/28 07:51:22;;;;;;;7.35;2.50;;;12.90;84.40;;;;;;5116794;28;20032;-71
2023/10/28 07:53:52;;;;;;;5.22;2.25;;;12.90;84.40;;;;;;5104592;28;20042;-71
2023/10/28 07:56:18;;;;;;;8.20;2.50;;;13.00;84.50;;;;;;5116334;28;20062;-71
2023/10/28 07:58:44;;;;;;;6.13;2.60;;;13.00;84.50;;;;;;5095330;28;20024;-71
2023/10/28 08:01:15;;;;;;;7.22;2.20;;;13.00;84.50;;;;;;5093106;28;20061;-71
2023/10/28 08:03:43;;;;;;;7.97;2.25;;;13.10;84.50;;;;;;5090131;28;20479;-71
2023/10/28 08:06:10;;;;;;;6.18;2.45;;;13.10;84.40;;;;;;5089168;28;20349;-70
2023/10/28 08:08:36;;;;;;;7.53;2.72;;;13.10;84.40;;;;;;5091873;28;20020;-71
2023/10/28 08:11:03;;;;;;;9.82;2.35;;;13.10;84.40;;;;;;5091551;28;20046;-71
2023/10/28 08:13:28;;;;;;;6.05;2.28;;;13.10;84.40;;;;;;5092867;28;20089;-72
2023/10/28 08:15:54;;;;;;;7.95;2.92;;;13.10;84.40;;;;;;5095230;28;20119;-70
2023/10/28 08:18:20;;;;;;;6.25;2.33;;;13.20;84.40;;;;;;5089981;28;20027;-70
2023/10/28 08:20:46;;;;;;;7.70;2.90;;;13.20;84.40;;;;;;5110670;28;20089;-71
2023/10/28 08:23:11;;;;;;;6.13;2.42;;;13.10;84.40;;;;;;5116611;28;20026;-71
2023/10/28 08:25:37;;;;;;;6.55;2.63;;;13.10;84.40;;;;;;5102771;28;20111;-71
2023/10/28 08:28:03;;;;;;;6.05;2.50;;;13.10;84.40;;;;;;5106099;27;20023;-70
2023/10/28 08:30:29;;;;;;;6.75;2.55;;;13.10;84.50;;;;;;5116486;28;20039;-71
2023/10/28 08:32:54;;;;;;;7.15;2.65;;;13.10;84.50;;;;;;5116740;28;20111;-70
2023/10/28 08:35:20;;;;;;;6.30;2.70;;;13.10;84.50;;;;;;5107327;28;20437;-70
2023/10/28 08:37:49;;;;;;;6.00;2.70;;;13.10;84.40;;;;;;5114601;28;20111;-70
2023/10/28 08:40:15;;;;;;;6.55;2.30;;;13.20;84.50;;;;;;5116041;28;20080;-70
2023/10/28 08:42:42;;;;;;;7.13;2.75;;;13.20;84.50;;;;;;5115673;28;20111;-70
2023/10/28 08:45:11;;;;;;;8.60;2.75;;;13.20;84.50;;;;;;5110771;28;20028;-71
2023/10/28 08:47:40;;;;;;;6.80;2.88;;;13.20;84.50;;;;;;5108952;28;20027;-71
2023/10/28 08:50:08;;;;;;;10.73;3.08;;;13.20;84.50;;;;;;5093933;28;20032;-70
2023/10/28 08:52:39;;;;;;;6.68;2.40;;;13.20;84.50;;;;;;5089001;28;20059;-70
2023/10/28 08:55:07;;;;;;;;;;;13.20;84.50;;;;;;5087957;28;20047;-70
2023/10/28 08:57:34;;;;;;;6.07;2.05;;;13.20;84.40;;;;;;5088859;28;19907;-70
2023/10/28 09:00:00;;;;;;;6.85;1.95;;;13.20;84.40;;;;;;5089071;28;20483;-71
2023/10/28 09:02:29;;;;;;;6.75;2.10;;;13.20;84.50;;;;;;5090074;28;20052;-71
2023/10/28 09:04:56;;;;;;;6.20;2.17;;;13.30;84.60;;;;;;5088157;28;20103;-70
2023/10/28 09:07:23;;;;;;;6.97;2.20;;;13.30;84.60;;;;;;5092797;28;20108;-70
2023/10/28 09:09:57;;;;;;;6.75;2.00;;;13.30;84.50;;;;;;5093178;28;20058;-70
2023/10/28 09:12:23;;;;;;;6.15;2.00;;;13.40;84.40;;;;;;5093345;28;20036;-71
2023/10/28 09:14:49;;;;;;;6.88;2.35;;;13.40;84.30;;;;;;5094645;28;20028;-71
2023/10/28 09:17:20;;;;;;;5.25;2.30;;;13.50;84.30;;;;;;5091193;28;20032;-70
2023/10/28 09:19:46;;;;;;;6.97;1.83;;;13.60;84.20;;;;;;5093355;28;20036;-71
2023/10/28 09:22:12;;;;;;;5.07;1.80;;;13.70;84.10;;;;;;5092818;28;20051;-70
2023/10/28 09:24:38;;;;;;;6.93;2.30;;;13.70;84.00;;;;;;5076092;28;20421;-70
2023/10/28 09:27:04;;;;;;;6.63;1.70;;;13.80;83.90;;;;;;5091894;28;20056;-70
2023/10/28 09:29:33;;;;;;;7.32;2.10;;;13.80;83.90;;;;;;5099309;28;20114;-70
2023/10/28 09:32:08;;;;;;;6.03;2.20;;;13.80;83.90;;;;;;5092769;28;20024;-70
2023/10/28 09:34:40;;;;;;;5.47;2.30;;;13.90;83.80;;;;;;5081103;28;20467;-70
2023/10/28 09:37:08;;;;;;;5.85;2.03;;;13.90;83.80;;;;;;5092845;28;20070;-71
2023/10/28 09:39:35;;;;;;;6.30;2.47;;;13.90;83.80;;;;;;5092783;28;20028;-71
2023/10/28 09:42:02;;;;;;;7.20;2.20;;;13.90;83.80;;;;;;5092934;28;20095;-71
2023/10/28 09:44:28;;;;;;;6.47;2.20;;;13.90;83.80;;;;;;5094087;28;20445;-71
2023/10/28 09:47:04;;;;;;;8.95;2.20;;;13.90;83.80;;;;;;5093090;28;20058;-70
2023/10/28 09:49:31;;;;;;;5.30;1.90;;;13.90;83.70;;;;;;5089394;28;20384;-70
2023/10/28 09:52:07;;;;;;;5.63;2.20;;;14.00;83.70;;;;;;5094029;28;20039;-70
2023/10/28 09:54:41;;;;;;;6.15;1.75;;;14.00;83.60;;;;;;5107709;28;20490;-70
2023/10/28 09:57:10;;;;;;;5.93;2.08;;;14.00;83.60;;;;;;5110596;28;20363;-70
2023/10/28 09:59:39;;;;;;;4.82;2.00;;;14.10;83.50;;;;;;5103961;28;20084;-71
2023/10/28 10:02:32;;;;;;;6.13;2.05;;;14.10;83.40;;;;;;5114603;28;20068;-71
2023/10/28 10:05:11;;;;;;;5.70;2.28;;;14.20;83.30;;;;;;5112931;28;20040;-71
2023/10/28 10:07:37;;;;;;;7.00;2.08;;;14.20;83.20;;;;;;5112973;28;20032;-70
2023/10/28 10:10:13;;;;;;;7.53;2.22;;;14.20;83.20;;;;;;5096451;28;20024;-71
2023/10/28 10:12:40;;;;;;;7.30;1.83;;;14.30;83.10;;;;;;5113297;28;20106;-71
2023/10/28 10:15:13;;;;;;;8.25;2.40;;;14.30;83.10;;;;;;5113331;28;20032;-70
2023/10/28 10:18:04;;;;;;;5.75;2.05;;;14.30;83.10;;;;;;5106274;28;20029;-71
2023/10/28 10:20:32;;;;;;;5.95;2.00;;;14.40;83.10;;;;;;5096380;28;20030;-70
2023/10/28 10:23:00;;;;;;;7.53;1.85;;;14.40;82.90;;;;;;5104489;28;20039;-70
2023/10/28 10:25:43;;;;;;;5.05;1.80;;;14.40;82.90;;;;;;5114059;28;20093;-70
2023/10/28 10:28:13;;;;;;;5.72;2.00;;;14.40;82.80;;;;;;5114037;28;20448;-71
2023/10/28 10:30:40;;;;;;;8.00;1.70;;;14.40;82.80;;;;;;5101651;28;20038;-71
2023/10/28 10:33:07;;;;;;;6.20;2.00;;;14.40;82.80;;;;;;5114660;28;20023;-70
2023/10/28 10:35:34;;;;;;;7.65;2.10;;;14.40;82.60;;;;;;5113757;28;20035;-70
2023/10/28 10:38:04;;;;;;;6.75;1.95;;;14.50;83.20;;;;;;5116970;28;20048;-70
2023/10/28 10:40:34;;;;;;;4.57;1.67;;;14.60;82.50;;;;;;5106248;28;20024;-70
2023/10/28 10:43:07;;;;;;;8.02;2.15;;;14.60;82.90;;;;;;5101062;28;20024;-70
2023/10/28 10:45:34;;;;;;;5.57;1.77;;;14.60;82.00;;;;;;5115383;28;20432;-70
2023/10/28 10:48:02;;;;;;;6.65;2.17;;;14.60;82.00;;;;;;5092541;28;20143;-70
2023/10/28 10:50:28;;;;;;;8.10;2.20;;;14.60;81.90;;;;;;5096903;28;20426;-71
2023/10/28 10:52:56;;;;;;;4.10;1.60;;;14.60;81.90;;;;;;5108369;28;20114;-71
2023/10/28 10:55:23;;;;;;;6.32;1.80;;;14.70;81.90;;;;;;5118159;28;20031;-70
2023/10/28 10:57:51;;;;;;;8.38;2.33;;;14.70;81.90;;;;;;5118182;28;20037;-70
2023/10/28 11:00:17;;;;;;;5.18;1.83;;;14.70;81.90;;;;;;5094275;28;20115;-70
2023/10/28 11:02:44;;;;;;;5.95;1.77;;;14.70;81.90;;;;;;5103928;28;20032;-70
2023/10/28 11:05:10;;;;;;;5.20;1.70;;;14.70;81.80;;;;;;5095300;28;20075;-70
2023/10/28 11:07:36;;;;;;;4.47;1.40;;;14.70;81.60;;;;;;5096136;28;20074;-71
2023/10/28 11:10:04;;;;;;;4.15;1.75;;;14.70;81.50;;;;;;5114267;28;20460;-70
2023/10/28 11:12:30;;;;;;;5.50;1.50;;;14.70;81.50;;;;;;5103931;28;20024;-70
2023/10/28 11:14:57;;;;;;;5.25;1.88;;;14.80;81.20;;;;;;5090484;28;20451;-71
2023/10/28 11:17:23;;;;;;;6.80;1.98;;;14.70;81.00;;;;;;5090514;28;20523;-70
2023/10/28 11:19:52;;;;;;;6.55;1.70;;;14.70;80.80;;;;;;5074662;28;20117;-71
2023/10/28 11:22:18;;;;;;;5.75;1.60;;;14.80;80.70;;;;;;5086987;28;20036;-71
2023/10/28 11:24:44;;;;;;;5.45;1.73;;;14.80;80.60;;;;;;5087650;28;20115;-71
2023/10/28 11:27:19;;;;;;;4.45;1.30;;;14.80;80.50;;;;;;5087732;28;20040;-70
2023/10/28 11:29:45;;;;;;;7.97;2.10;;;14.80;80.40;;;;;;5089856;28;20049;-71
2023/10/28 11:32:12;;;;;;;4.03;1.40;;;14.90;81.10;;;;;;5088664;28;20031;-71
2023/10/28 11:34:43;;;;;;;7.25;2.05;;;15.00;80.20;;;;;;5087089;28;20078;-71
2023/10/28 11:37:12;;;;;;;5.68;1.67;;;15.10;79.90;;;;;;5092584;28;20172;-71
2023/10/28 11:39:39;;;;;;;6.18;2.08;;;15.20;79.70;;;;;;5071555;28;20123;-70
2023/10/28 11:42:13;;;;;;;7.10;1.67;;;15.20;79.40;;;;;;5088241;28;20028;-70
2023/10/28 11:44:50;;;;;;;4.63;1.50;;;15.30;79.30;;;;;;5088236;28;20103;-70
2023/10/28 11:47:19;;;;;;;5.93;1.70;;;15.30;79.40;;;;;;5087352;28;20113;-71
2023/10/28 11:49:46;;;;;;;5.45;1.40;;;15.20;79.30;;;;;;5087968;28;20208;-71
2023/10/28 11:52:12;;;;;;;5.43;1.30;;;15.20;79.20;;;;;;5094781;28;20434;-71
2023/10/28 11:54:39;;;;;;;4.93;1.48;;;15.20;79.20;;;;;;5095185;28;20458;-71
2023/10/28 11:57:05;;;;;;;5.18;1.63;;;15.20;79.00;;;;;;5075891;28;20181;-70
2023/10/28 11:59:31;;;;;;;8.95;1.90;;;15.20;78.90;;;;;;5094730;28;20032;-73
2023/10/28 12:01:58;;;;;;;5.03;1.58;;;15.20;78.90;;;;;;5094848;28;20073;-70
2023/10/28 12:04:25;;;;;;;6.45;1.50;;;15.20;78.80;;;;;;5094799;28;20063;-71
2023/10/28 12:06:51;;;;;;;6.30;1.50;;;15.20;78.50;;;;;;5075549;28;20024;-70
2023/10/28 12:09:17;;;;;;;5.07;1.77;;;15.30;78.40;;;;;;5075381;28;20382;-71
2023/10/28 12:11:44;;;;;;;5.80;1.83;;;15.40;78.00;;;;;;5093253;28;20020;-71
2023/10/28 12:14:10;;;;;;;9.38;1.70;;;15.40;77.60;;;;;;5089349;28;20032;-70
2023/10/28 12:16:39;;;;;;;6.03;1.63;;;15.40;77.40;;;;;;5089030;28;20094;-70
2023/10/28 12:19:06;;;;;;;8.25;1.95;;;15.50;77.20;;;;;;5088428;28;20024;-71
2023/10/28 12:21:35;;;;;;;5.97;1.40;;;15.50;77.00;;;;;;5087533;28;20033;-72
2023/10/28 12:24:03;;;;;;;8.25;1.90;;;15.60;76.80;;;;;;5088980;28;20449;-72
2023/10/28 12:26:29;;;;;;;8.07;2.03;;;15.60;76.50;;;;;;5087625;28;20128;-72
2023/10/28 12:28:55;;;;;;;6.50;1.77;;;15.60;76.40;;;;;;5087677;28;20032;-71
2023/10/28 12:31:24;;;;;;;6.85;2.13;;;15.70;76.10;;;;;;5090151;28;20032;-72
2023/10/28 12:33:51;;;;;;;5.65;1.60;;;15.70;75.90;;;;;;5071972;28;20445;-71
2023/10/28 12:36:17;;;;;;;7.05;1.88;;;15.70;76.40;;;;;;5088623;28;20043;-71
2023/10/28 12:38:47;;;;;;;6.85;1.60;;;15.70;75.60;;;;;;5068500;28;20024;-71
2023/10/28 12:41:13;;;;;;;7.45;1.60;;;15.70;75.50;;;;;;5087864;28;20035;-71
2023/10/28 12:43:39;;;;;;;7.53;1.70;;;15.70;75.40;;;;;;5088389;28;20365;-71
2023/10/28 12:46:06;;;;;;;6.80;1.40;;;15.70;75.20;;;;;;5065992;28;20028;-71